Wetterdaten: Woche 23.05.11 - 29.05.11 (KW21)
Datum Zeit Temp. A. Feuchte A. Luftdruck Regen Wind Richtung Taupunkt Windchill Windben
23.05.2011 00:00 21,3 C 56 % 1017,8 hPa 0,0 l/m 4,1 km/h S-SO 12,2 C 21,3 C 22,9 km/h
23.05.2011 01:00 21,1 C 57 % 1018,3 hPa 0,0 l/m 2,1 km/h S 12,3 C 21,1 C 10,9 km/h
23.05.2011 02:00 20,7 C 57 % 1018,2 hPa 0,0 l/m 2,7 km/h W 11,8 C 20,7 C 17,7 km/h
23.05.2011 03:00 20,5 C 56 % 1018,0 hPa 0,0 l/m 4,9 km/h NW 11,4 C 20,5 C 20,5 km/h
23.05.2011 04:00 20,1 C 58 % 1018,5 hPa 0,0 l/m 2,6 km/h W-SW 11,5 C 20,1 C 14,1 km/h
23.05.2011 05:00 20,2 C 57 % 1019,3 hPa 0,0 l/m 3,5 km/h NW 11,4 C 20,2 C 16,9 km/h
23.05.2011 06:00 20,1 C 57 % 1020,1 hPa 0,0 l/m 3,3 km/h NW 11,2 C 20,1 C 15,7 km/h
23.05.2011 07:00 19,9 C 60 % 1021,0 hPa 0,0 l/m 3,6 km/h N-NW 11,8 C 19,9 C 12,9 km/h
23.05.2011 08:00 20,8 C 59 % 1022,0 hPa 0,0 l/m 4,6 km/h NW 12,5 C 20,8 C 17,7 km/h
23.05.2011 09:00 21,6 C 59 % 1022,7 hPa 0,0 l/m 6,3 km/h N-NW 13,2 C 21,5 C 18,5 km/h
23.05.2011 10:00 23,5 C 56 % 1023,1 hPa 0,0 l/m 5,7 km/h N-NW 14,2 C 23,5 C 17,7 km/h
23.05.2011 11:00 26,3 C 49 % 1023,2 hPa 0,0 l/m 5,2 km/h N-NW 14,7 C 26,3 C 14,1 km/h
23.05.2011 12:00 25,9 C 49 % 1023,3 hPa 0,0 l/m 4,2 km/h N-NW 14,4 C 25,9 C 14,9 km/h
23.05.2011 13:00 27,5 C 48 % 1023,2 hPa 0,0 l/m 6,1 km/h N-NW 15,4 C 27,5 C 17,3 km/h
23.05.2011 14:00 29,3 C 41 % 1022,5 hPa 0,0 l/m 5,4 km/h N 14,7 C 29,3 C 14,1 km/h
23.05.2011 15:00 29,8 C 39 % 1021,9 hPa 0,0 l/m 5,5 km/h N 14,2 C 29,8 C 14,5 km/h
23.05.2011 16:00 29,0 C 39 % 1021,8 hPa 0,0 l/m 4,0 km/h NW 13,6 C 29,0 C 12,5 km/h
23.05.2011 17:00 28,9 C 39 % 1021,5 hPa 0,0 l/m 4,1 km/h N-NW 13,6 C 28,9 C 10,1 km/h
23.05.2011 18:00 27,8 C 42 % 1021,4 hPa 0,0 l/m 3,8 km/h N-NW 13,6 C 27,8 C 9,7 km/h
23.05.2011 19:00 25,7 C 46 % 1021,6 hPa 0,0 l/m 1,2 km/h N-NW 13,3 C 25,7 C 4,4 km/h
23.05.2011 20:00 24,1 C 52 % 1021,7 hPa 0,0 l/m 0,0 km/h N 13,4 C 24,1 C 0,4 km/h
23.05.2011 21:00 21,5 C 59 % 1022,1 hPa 0,0 l/m 0,0 km/h N 13,2 C 21,5 C 0,4 km/h
23.05.2011 22:00 19,4 C 67 % 1022,2 hPa 0,0 l/m 0,0 km/h N 13,0 C 19,4 C 1,6 km/h
23.05.2011 23:00 18,0 C 72 % 1022,3 hPa 0,0 l/m 0,3 km/h N 12,8 C 18,0 C 4,0 km/h
24.05.2011 00:00 17,0 C 74 % 1022,1 hPa 0,0 l/m 0,1 km/h N 12,4 C 17,0 C 2,4 km/h
24.05.2011 01:00 16,1 C 77 % 1021,7 hPa 0,0 l/m 0,1 km/h N 12,0 C 16,1 C 2,8 km/h
24.05.2011 02:00 15,3 C 78 % 1021,2 hPa 0,0 l/m 0,0 km/h N 11,4 C 15,3 C 1,6 km/h
24.05.2011 03:00 14,6 C 80 % 1020,8 hPa 0,0 l/m 0,1 km/h N 11,3 C 14,6 C 2,0 km/h
24.05.2011 04:00 14,2 C 81 % 1020,6 hPa 0,0 l/m 0,0 km/h N 10,9 C 14,2 C 2,0 km/h
24.05.2011 05:00 13,6 C 81 % 1020,9 hPa 0,0 l/m 0,0 km/h N 10,4 C 13,6 C 0,8 km/h
24.05.2011 06:00 13,3 C 82 % 1021,2 hPa 0,0 l/m 0,0 km/h N 10,3 C 13,3 C 1,2 km/h
24.05.2011 07:00 14,7 C 81 % 1021,4 hPa 0,0 l/m 0,0 km/h N 11,5 C 14,7 C 1,2 km/h
24.05.2011 08:00 16,6 C 82 % 1021,5 hPa 0,0 l/m 0,0 km/h N 13,4 C 16,6 C 1,2 km/h
24.05.2011 09:00 19,0 C 74 % 1021,6 hPa 0,0 l/m 0,2 km/h N 14,2 C 19,0 C 2,8 km/h
24.05.2011 10:00 23,2 C 60 % 1021,2 hPa 0,0 l/m 0,5 km/h N 14,8 C 23,2 C 4,4 km/h
24.05.2011 11:00 27,3 C 46 % 1020,6 hPa 0,0 l/m 0,8 km/h SW 14,5 C 27,3 C 5,6 km/h
24.05.2011 12:00 30,3 C 41 % 1020,0 hPa 0,0 l/m 0,8 km/h N 15,3 C 30,3 C 6,0 km/h
24.05.2011 13:00 30,9 C 40 % 1019,5 hPa 0,0 l/m 1,0 km/h N-NO 15,6 C 30,9 C 7,2 km/h
24.05.2011 14:00 31,7 C 38 % 1018,9 hPa 0,0 l/m 1,3 km/h N-NO 15,6 C 31,7 C 4,8 km/h
24.05.2011 15:00 30,4 C 40 % 1018,5 hPa 0,0 l/m 0,1 km/h N 15,0 C 30,4 C 1,2 km/h
24.05.2011 16:00 31,0 C 39 % 1017,9 hPa 0,0 l/m 0,6 km/h S-SO 15,4 C 31,0 C 5,6 km/h
24.05.2011 17:00 31,4 C 37 % 1017,4 hPa 0,0 l/m 0,5 km/h S 15,0 C 31,4 C 3,6 km/h
24.05.2011 18:00 31,3 C 33 % 1017,3 hPa 0,0 l/m 1,3 km/h S-SO 12,9 C 31,3 C 8,1 km/h
24.05.2011 19:00 28,9 C 33 % 1017,5 hPa 0,0 l/m 0,9 km/h S-SW 10,8 C 28,9 C 5,6 km/h
24.05.2011 20:00 26,7 C 40 % 1017,6 hPa 0,0 l/m 0,2 km/h N 11,8 C 26,7 C 2,4 km/h
24.05.2011 21:00 24,0 C 46 % 1018,3 hPa 0,0 l/m 0,2 km/h N 11,4 C 24,0 C 3,6 km/h
24.05.2011 22:00 22,6 C 48 % 1018,4 hPa 0,0 l/m 0,2 km/h N 10,9 C 22,6 C 2,4 km/h
24.05.2011 23:00 21,3 C 50 % 1018,5 hPa 0,0 l/m 0,2 km/h N 10,4 C 21,3 C 2,8 km/h
25.05.2011 00:00 20,9 C 50 % 1018,5 hPa 0,0 l/m 0,0 km/h N 10,0 C 20,9 C 0,4 km/h
25.05.2011 01:00 21,5 C 48 % 1019,1 hPa 0,0 l/m 3,3 km/h N-NW 9,9 C 21,5 C 11,3 km/h
25.05.2011 02:00 19,9 C 55 % 1020,1 hPa 0,0 l/m 7,6 km/h N-NW 10,5 C 19,3 C 18,1 km/h
25.05.2011 03:00 17,8 C 58 % 1021,3 hPa 0,0 l/m 8,3 km/h N-NW 9,2 C 16,9 C 19,3 km/h
25.05.2011 04:00 17,2 C 55 % 1022,4 hPa 0,0 l/m 7,8 km/h NW 7,9 C 16,5 C 19,3 km/h
25.05.2011 05:00 16,5 C 54 % 1023,3 hPa 0,0 l/m 7,9 km/h N-NW 7,1 C 15,8 C 20,9 km/h
25.05.2011 06:00 15,8 C 56 % 1024,5 hPa 0,0 l/m 6,9 km/h N-NW 6,9 C 15,3 C 18,1 km/h
25.05.2011 07:00 15,7 C 57 % 1025,4 hPa 0,0 l/m 6,1 km/h N 7,2 C 15,6 C 16,5 km/h
25.05.2011 08:00 16,1 C 57 % 1026,1 hPa 0,0 l/m 5,1 km/h N-NW 7,5 C 16,1 C 15,7 km/h
25.05.2011 09:00 16,9 C 53 % 1026,4 hPa 0,0 l/m 5,2 km/h N-NW 7,2 C 16,9 C 12,5 km/h
25.05.2011 10:00 19,7 C 46 % 1026,4 hPa 0,0 l/m 4,5 km/h N-NW 7,7 C 19,7 C 10,9 km/h
25.05.2011 11:00 22,4 C 41 % 1026,1 hPa 0,0 l/m 4,7 km/h N-NW 8,3 C 22,4 C 12,1 km/h
25.05.2011 12:00 24,0 C 38 % 1025,8 hPa 0,0 l/m 5,0 km/h N-NW 8,6 C 24,0 C 15,7 km/h
25.05.2011 13:00 25,0 C 34 % 1025,0 hPa 0,0 l/m 5,7 km/h N 8,1 C 25,0 C 16,9 km/h
25.05.2011 14:00 25,7 C 33 % 1024,3 hPa 0,0 l/m 5,9 km/h N-NW 8,2 C 25,7 C 16,5 km/h
25.05.2011 15:00 26,5 C 30 % 1023,6 hPa 0,0 l/m 5,8 km/h N-NO 7,3 C 26,5 C 17,3 km/h
25.05.2011 16:00 27,3 C 28 % 1023,1 hPa 0,0 l/m 4,5 km/h N 7,0 C 27,3 C 13,3 km/h
25.05.2011 17:00 26,6 C 28 % 1022,6 hPa 0,0 l/m 4,0 km/h N-NO 6,4 C 26,6 C 12,1 km/h
25.05.2011 18:00 23,6 C 30 % 1022,3 hPa 0,0 l/m 4,5 km/h NO 5,1 C 23,6 C 10,1 km/h
25.05.2011 19:00 21,2 C 33 % 1022,3 hPa 0,0 l/m 2,8 km/h N-NO 4,4 C 21,2 C 8,1 km/h
25.05.2011 20:00 20,0 C 34 % 1022,5 hPa 0,0 l/m 0,4 km/h N 3,6 C 20,0 C 3,2 km/h
25.05.2011 21:00 18,1 C 42 % 1023,3 hPa 0,0 l/m 0,0 km/h N 4,8 C 18,1 C 0,8 km/h
25.05.2011 22:00 15,2 C 51 % 1023,6 hPa 0,0 l/m 0,0 km/h N 5,1 C 15,2 C 0,8 km/h
25.05.2011 23:00 13,5 C 56 % 1023,6 hPa 0,0 l/m 0,0 km/h N 5,0 C 13,5 C 2,0 km/h
26.05.2011 00:00 12,2 C 61 % 1023,0 hPa 0,0 l/m 0,0 km/h N 4,9 C 12,2 C 1,2 km/h
26.05.2011 01:00 11,0 C 66 % 1022,6 hPa 0,0 l/m 0,0 km/h N 4,9 C 11,0 C 0,0 km/h
26.05.2011 02:00 10,0 C 70 % 1022,0 hPa 0,0 l/m 0,0 km/h N 4,8 C 10,0 C 0,0 km/h
26.05.2011 03:00 9,1 C 73 % 1021,7 hPa 0,0 l/m 0,0 km/h N 4,5 C 9,1 C 0,0 km/h
26.05.2011 04:00 8,6 C 76 % 1021,3 hPa 0,0 l/m 0,0 km/h N 4,7 C 8,6 C 1,6 km/h
26.05.2011 05:00 8,5 C 76 % 1021,2 hPa 0,0 l/m 0,0 km/h N 4,6 C 8,5 C 0,4 km/h
26.05.2011 06:00 8,4 C 80 % 1021,3 hPa 0,0 l/m 0,0 km/h N 5,1 C 8,4 C 0,4 km/h
26.05.2011 07:00 10,0 C 80 % 1021,1 hPa 0,0 l/m 0,0 km/h N 6,6 C 10,0 C 0,4 km/h
26.05.2011 08:00 13,1 C 69 % 1020,5 hPa 0,0 l/m 0,1 km/h N 7,5 C 13,1 C 3,2 km/h
26.05.2011 09:00 16,2 C 57 % 1019,5 hPa 0,0 l/m 0,9 km/h N-NO 7,6 C 16,2 C 6,0 km/h
26.05.2011 10:00 20,3 C 47 % 1018,8 hPa 0,0 l/m 1,1 km/h O-SO 8,4 C 20,3 C 8,9 km/h
26.05.2011 11:00 23,9 C 39 % 1018,1 hPa 0,0 l/m 1,7 km/h O-SO 9,1 C 23,9 C 12,9 km/h
26.05.2011 12:00 25,8 C 36 % 1017,5 hPa 0,0 l/m 1,3 km/h NO 9,6 C 25,8 C 10,5 km/h
26.05.2011 13:00 27,7 C 34 % 1016,8 hPa 0,0 l/m 1,5 km/h NO 10,3 C 27,7 C 9,3 km/h
26.05.2011 14:00 28,6 C 34 % 1015,8 hPa 0,0 l/m 1,3 km/h O 11,2 C 28,6 C 6,8 km/h
26.05.2011 15:00 29,2 C 34 % 1015,0 hPa 0,0 l/m 1,2 km/h O-NO 11,7 C 29,2 C 6,0 km/h
26.05.2011 16:00 29,4 C 34 % 1014,2 hPa 0,0 l/m 1,2 km/h O 12,0 C 29,4 C 6,0 km/h
26.05.2011 17:00 29,4 C 35 % 1013,4 hPa 0,0 l/m 1,1 km/h O 12,3 C 29,4 C 6,8 km/h
26.05.2011 18:00 28,9 C 36 % 1012,8 hPa 0,0 l/m 0,8 km/h SW 12,3 C 28,9 C 6,8 km/h
26.05.2011 19:00 26,4 C 41 % 1012,6 hPa 0,0 l/m 0,6 km/h N 11,9 C 26,4 C 6,0 km/h
26.05.2011 20:00 24,1 C 47 % 1012,1 hPa 0,0 l/m 0,1 km/h N 12,1 C 24,1 C 1,6 km/h
26.05.2011 21:00 21,3 C 55 % 1011,8 hPa 0,0 l/m 0,1 km/h N 12,0 C 21,3 C 2,0 km/h
26.05.2011 22:00 20,3 C 56 % 1011,8 hPa 0,0 l/m 0,1 km/h N 11,3 C 20,3 C 0,8 km/h
26.05.2011 23:00 19,3 C 57 % 1012,0 hPa 0,0 l/m 0,0 km/h N 10,6 C 19,3 C 0,0 km/h
27.05.2011 00:00 18,3 C 59 % 1012,2 hPa 0,0 l/m 0,0 km/h N 10,1 C 18,3 C 0,0 km/h
27.05.2011 01:00 18,2 C 59 % 1012,6 hPa 0,0 l/m 0,3 km/h N 10,0 C 18,2 C 3,2 km/h
27.05.2011 02:00 17,2 C 63 % 1012,7 hPa 0,0 l/m 0,0 km/h N 10,0 C 17,2 C 1,6 km/h
27.05.2011 03:00 15,9 C 69 % 1012,7 hPa 0,0 l/m 0,0 km/h N 10,2 C 15,9 C 1,2 km/h
27.05.2011 04:00 15,4 C 73 % 1012,8 hPa 0,0 l/m 0,1 km/h N 10,5 C 15,4 C 1,6 km/h
27.05.2011 05:00 14,9 C 77 % 1012,9 hPa 0,0 l/m 0,0 km/h N 10,8 C 14,9 C 0,4 km/h
27.05.2011 06:00 15,4 C 79 % 1012,9 hPa 0,0 l/m 0,0 km/h N 11,7 C 15,4 C 0,0 km/h
27.05.2011 07:00 17,2 C 75 % 1013,0 hPa 0,0 l/m 0,0 km/h N 12,6 C 17,2 C 0,4 km/h
27.05.2011 08:00 19,6 C 66 % 1012,9 hPa 0,0 l/m 0,0 km/h N 13,1 C 19,6 C 0,4 km/h
27.05.2011 09:00 21,4 C 63 % 1012,8 hPa 0,0 l/m 0,2 km/h N 13,9 C 21,4 C 2,0 km/h
27.05.2011 10:00 23,3 C 57 % 1012,5 hPa 0,0 l/m 0,1 km/h N 14,3 C 23,3 C 2,4 km/h
27.05.2011 11:00 25,2 C 54 % 1012,3 hPa 0,0 l/m 2,1 km/h N-NO 15,1 C 25,2 C 7,2 km/h
27.05.2011 12:00 27,1 C 48 % 1012,0 hPa 0,0 l/m 2,2 km/h N-NW 15,1 C 27,1 C 8,8 km/h
27.05.2011 13:00 22,5 C 57 % 1012,5 hPa 0,0 l/m 6,9 km/h N-NW 13,7 C 22,3 C 17,7 km/h
27.05.2011 14:00 17,6 C 73 % 1013,5 hPa 7,5 l/m 6,2 km/h N 12,5 C 17,1 C 24,6 km/h
27.05.2011 15:00 19,1 C 77 % 1012,6 hPa 0,0 l/m 4,3 km/h N 15,0 C 19,1 C 11,3 km/h
27.05.2011 16:00 19,9 C 68 % 1011,7 hPa 0,0 l/m 4,2 km/h N-NW 13,7 C 19,9 C 9,7 km/h
27.05.2011 17:00 19,4 C 67 % 1010,7 hPa 0,0 l/m 2,8 km/h N-NW 13,1 C 19,4 C 8,0 km/h
27.05.2011 18:00 18,2 C 70 % 1010,0 hPa 0,0 l/m 1,8 km/h N-NO 12,7 C 18,2 C 6,0 km/h
27.05.2011 19:00 17,1 C 77 % 1010,9 hPa 1,8 l/m 1,8 km/h SW 13,0 C 17,1 C 10,4 km/h
27.05.2011 20:00 13,9 C 81 % 1013,3 hPa 8,3 l/m 6,9 km/h N-NW 10,7 C 13,5 C 23,3 km/h
27.05.2011 21:00 11,9 C 82 % 1014,3 hPa 2,3 l/m 3,6 km/h SW 9,0 C 11,9 C 14,9 km/h
27.05.2011 22:00 11,8 C 82 % 1014,6 hPa 0,3 l/m 4,0 km/h O-SO 8,8 C 11,8 C 17,7 km/h
27.05.2011 23:00 11,4 C 82 % 1015,1 hPa 2,3 l/m 3,7 km/h S-SW 8,4 C 11,4 C 19,3 km/h
28.05.2011 00:00 10,6 C 82 % 1015,2 hPa 1,0 l/m 3,8 km/h NW 7,7 C 10,6 C 16,1 km/h
28.05.2011 01:00 10,3 C 82 % 1015,2 hPa 0,0 l/m 4,1 km/h W-SW 7,4 C 10,3 C 16,1 km/h
28.05.2011 02:00 10,3 C 83 % 1015,2 hPa 0,0 l/m 4,1 km/h NW 7,5 C 10,3 C 16,1 km/h
28.05.2011 03:00 10,3 C 83 % 1015,4 hPa 0,0 l/m 3,8 km/h NW 7,5 C 10,3 C 14,5 km/h
28.05.2011 04:00 10,1 C 82 % 1015,2 hPa 0,0 l/m 2,8 km/h N-NW 7,2 C 10,1 C 9,6 km/h
28.05.2011 05:00 10,0 C 83 % 1015,0 hPa 0,0 l/m 3,0 km/h NW 7,2 C 10,0 C 14,5 km/h
28.05.2011 06:00 10,3 C 82 % 1015,6 hPa 0,0 l/m 3,9 km/h NW 7,4 C 10,3 C 14,9 km/h
28.05.2011 07:00 10,2 C 83 % 1015,6 hPa 0,5 l/m 4,0 km/h SW 7,4 C 10,2 C 15,7 km/h
28.05.2011 08:00 10,2 C 83 % 1016,1 hPa 1,3 l/m 3,6 km/h S 7,4 C 10,2 C 14,5 km/h
28.05.2011 09:00 10,5 C 82 % 1016,2 hPa 0,8 l/m 3,9 km/h SO 7,5 C 10,5 C 18,5 km/h
28.05.2011 10:00 10,7 C 82 % 1016,5 hPa 1,3 l/m 4,1 km/h NW 7,7 C 10,7 C 11,3 km/h
28.05.2011 11:00 11,1 C 82 % 1016,8 hPa 1,0 l/m 3,3 km/h N-NW 8,1 C 11,1 C 14,1 km/h
28.05.2011 12:00 11,9 C 82 % 1016,5 hPa 0,8 l/m 4,5 km/h N-NW 8,9 C 11,9 C 16,1 km/h
28.05.2011 13:00 12,9 C 82 % 1016,5 hPa 0,0 l/m 3,3 km/h NW 9,8 C 12,9 C 11,3 km/h
28.05.2011 14:00 13,3 C 82 % 1016,4 hPa 0,0 l/m 3,2 km/h S-SO 10,3 C 13,3 C 12,5 km/h
28.05.2011 15:00 14,0 C 80 % 1016,1 hPa 0,0 l/m 4,6 km/h N-NW 10,6 C 14,0 C 15,3 km/h
28.05.2011 16:00 14,1 C 79 % 1016,0 hPa 0,0 l/m 3,7 km/h NW 10,6 C 14,1 C 14,5 km/h
28.05.2011 17:00 14,3 C 78 % 1016,0 hPa 0,0 l/m 3,0 km/h N-NW 10,4 C 14,3 C 10,9 km/h
28.05.2011 18:00 13,4 C 81 % 1016,0 hPa 0,0 l/m 2,0 km/h N-NW 10,2 C 13,4 C 7,2 km/h
28.05.2011 19:00 13,4 C 80 % 1015,8 hPa 0,0 l/m 3,1 km/h N-NW 10,0 C 13,4 C 11,3 km/h
28.05.2011 20:00 13,0 C 79 % 1015,9 hPa 0,0 l/m 2,5 km/h N-NW 9,5 C 13,0 C 8,4 km/h
28.05.2011 21:00 12,2 C 81 % 1016,3 hPa 0,0 l/m 1,0 km/h N 8,9 C 12,2 C 6,0 km/h
28.05.2011 22:00 11,6 C 82 % 1016,4 hPa 0,0 l/m 1,0 km/h N-NW 8,6 C 11,6 C 4,8 km/h
28.05.2011 23:00 11,1 C 82 % 1016,4 hPa 0,0 l/m 0,0 km/h N 8,2 C 11,1 C 0,4 km/h
29.05.2011 00:00 10,6 C 83 % 1016,7 hPa 0,0 l/m 0,0 km/h N 7,8 C 10,6 C 0,0 km/h
29.05.2011 01:00 10,2 C 83 % 1016,7 hPa 0,0 l/m 0,0 km/h N 7,5 C 10,2 C 0,0 km/h
29.05.2011 02:00 10,4 C 83 % 1016,4 hPa 0,0 l/m 0,0 km/h N 7,6 C 10,4 C 4,0 km/h
29.05.2011 03:00 10,7 C 83 % 1016,1 hPa 0,0 l/m 0,0 km/h N 7,8 C 10,7 C 2,4 km/h
29.05.2011 04:00 11,1 C 81 % 1016,3 hPa 0,0 l/m 0,5 km/h W-SW 7,9 C 11,1 C 9,6 km/h
29.05.2011 05:00 11,8 C 78 % 1016,8 hPa 0,0 l/m 0,0 km/h N 8,0 C 11,8 C 12,9 km/h
29.05.2011 06:00 12,4 C 75 % 1017,3 hPa 0,0 l/m 0,0 km/h N 8,0 C 12,4 C 11,3 km/h
29.05.2011 07:00 13,3 C 74 % 1017,6 hPa 0,0 l/m 0,8 km/h NW 8,6 C 13,3 C 8,0 km/h
29.05.2011 08:00 14,7 C 69 % 1018,0 hPa 0,0 l/m 2,4 km/h N-NW 9,0 C 14,7 C 12,9 km/h
29.05.2011 09:00 16,4 C 64 % 1018,4 hPa 0,0 l/m 3,3 km/h NW 9,7 C 16,4 C 15,3 km/h
29.05.2011 10:00 19,5 C 56 % 1018,6 hPa 0,0 l/m 4,7 km/h N-NW 10,3 C 19,5 C 14,9 km/h
29.05.2011 11:00 22,5 C 47 % 1018,6 hPa 0,0 l/m 3,3 km/h N-NW 10,5 C 22,5 C 11,3 km/h
29.05.2011 12:00 24,4 C 42 % 1018,5 hPa 0,0 l/m 3,7 km/h N-NW 10,5 C 24,4 C 13,3 km/h
29.05.2011 13:00 25,8 C 40 % 1018,3 hPa 0,0 l/m 3,4 km/h N-NW 11,0 C 25,8 C 14,5 km/h
29.05.2011 14:00 25,8 C 38 % 1018,1 hPa 0,0 l/m 2,8 km/h NW 10,5 C 25,8 C 11,3 km/h
29.05.2011 15:00 26,3 C 37 % 1017,9 hPa 0,0 l/m 3,3 km/h N 10,4 C 26,3 C 10,5 km/h
29.05.2011 16:00 26,9 C 36 % 1017,7 hPa 0,0 l/m 2,4 km/h N-NW 10,3 C 26,9 C 9,6 km/h
29.05.2011 17:00 27,0 C 36 % 1017,4 hPa 0,0 l/m 2,4 km/h S 10,4 C 27,0 C 9,3 km/h
29.05.2011 18:00 25,8 C 37 % 1017,4 hPa 0,0 l/m 1,5 km/h SW 9,7 C 25,8 C 8,8 km/h
29.05.2011 19:00 23,7 C 42 % 1017,6 hPa 0,0 l/m 0,1 km/h N 9,8 C 23,7 C 1,6 km/h
29.05.2011 20:00 21,6 C 49 % 1018,0 hPa 0,0 l/m 0,0 km/h N 10,4 C 21,6 C 0,0 km/h
29.05.2011 21:00 18,5 C 59 % 1018,6 hPa 0,0 l/m 0,1 km/h N 10,3 C 18,5 C 2,0 km/h
29.05.2011 22:00 16,3 C 67 % 1019,0 hPa 0,0 l/m 0,0 km/h N 10,0 C 16,3 C 1,6 km/h
29.05.2011 23:00 15,0 C 71 % 1019,1 hPa 0,0 l/m 0,0 km/h N 9,8 C 15,0 C 1,2 km/h
Min-Datum _ 26.05.11 25.05.11 27.05.11 - 23.05.11 - 25.05.11 26.05.11 23.05.11
_ Min-Zeit 06:15 16:30 18:15 - 20:15 - 20:15 06:00 20:15
Minimum _ 8,1 C 27 % 1009,7 hPa - 0,0 km/h - 3,3 C 8,2 C 0,0 km/h
Max-Datum _ 24.05.11 28.05.11 25.05.11 27.05.11 27.05.11 - 24.05.11 24.05.11 27.05.11
_ Max-Zeit 14:45 01:45 09:30 20:00 14:15 - 13:15 14:45 14:15
Maximum _ 32,2 C 83 % 1026,5 hPa 8,3 l/m 10,3 km/h
N
- 16,2 C 32,1 C 43,5 km/h
N-NW
Durchschnitt _ 19,1 C 60 % 1018,3 hPa #29,4 l/m 2,2 km/h N-NW 10,3 C 19,1 C 8,6 km/h